createdAt,value
2023-07-22T00:00:02.466Z,7.20
2023-07-22T00:02:31.295Z,7.30
2023-07-22T00:04:58.077Z,7.95
2023-07-22T00:07:25.268Z,8.20
2023-07-22T00:09:53.003Z,9.73
2023-07-22T00:12:20.265Z,8.45
2023-07-22T00:14:47.542Z,8.70
2023-07-22T00:17:15.529Z,8.68
2023-07-22T00:19:42.812Z,8.52
2023-07-22T00:22:09.609Z,9.13
2023-07-22T00:24:36.753Z,8.90
2023-07-22T00:27:04.307Z,9.18
2023-07-22T00:29:31.565Z,8.02
2023-07-22T00:31:58.314Z,8.35
2023-07-22T00:34:25.523Z,7.35
2023-07-22T00:36:53.145Z,8.02
2023-07-22T00:39:20.367Z,9.75
2023-07-22T00:41:48.300Z,8.45
2023-07-22T00:44:15.924Z,8.70
2023-07-22T00:46:43.195Z,8.77
2023-07-22T00:49:10.394Z,8.40
2023-07-22T00:51:37.743Z,8.45
2023-07-22T00:54:06.615Z,7.95
2023-07-22T00:56:38.438Z,10.70
2023-07-22T00:59:06.253Z,8.38
2023-07-22T01:01:33.793Z,7.30
2023-07-22T01:04:03.189Z,8.50
2023-07-22T01:06:31.826Z,9.82
2023-07-22T01:09:00.494Z,7.72
2023-07-22T01:11:27.777Z,8.30
2023-07-22T01:13:59.642Z,8.70
2023-07-22T01:16:30.030Z,8.48
2023-07-22T01:18:58.547Z,9.45
2023-07-22T01:21:26.937Z,8.60
2023-07-22T01:23:54.812Z,10.15
2023-07-22T01:26:22.157Z,9.68
2023-07-22T01:28:49.492Z,11.38
2023-07-22T01:31:16.843Z,12.98
2023-07-22T01:33:44.279Z,14.25
2023-07-22T01:36:11.526Z,11.35
2023-07-22T01:38:38.950Z,12.20
2023-07-22T01:41:06.353Z,10.95
2023-07-22T01:43:33.584Z,11.65
2023-07-22T01:46:00.894Z,9.07
2023-07-22T01:48:28.279Z,11.77
2023-07-22T01:50:55.645Z,8.45
2023-07-22T01:53:22.860Z,8.25
2023-07-22T01:55:50.417Z,9.07
2023-07-22T01:58:17.711Z,9.07
2023-07-22T02:00:45.024Z,8.48
2023-07-22T02:03:12.591Z,10.15
2023-07-22T02:05:40.272Z,10.57
2023-07-22T02:08:07.687Z,9.35
2023-07-22T02:10:34.540Z,9.73
2023-07-22T02:13:01.919Z,10.93
2023-07-22T02:15:29.265Z,8.82
2023-07-22T02:17:56.711Z,8.40
2023-07-22T02:20:24.347Z,8.05
2023-07-22T02:22:51.582Z,8.93
2023-07-22T02:25:18.804Z,9.55
2023-07-22T02:27:46.083Z,7.72
2023-07-22T02:30:13.785Z,8.60
2023-07-22T02:32:42.414Z,9.63
2023-07-22T02:35:10.456Z,12.00
2023-07-22T02:37:41.018Z,8.52
2023-07-22T02:40:09.672Z,9.00
2023-07-22T02:42:36.990Z,9.82
2023-07-22T02:45:05.818Z,9.00
2023-07-22T02:47:36.269Z,11.02
2023-07-22T02:50:06.457Z,9.32
2023-07-22T02:52:34.069Z,10.63
2023-07-22T02:55:12.430Z,12.10
2023-07-22T02:57:40.952Z,12.00
2023-07-22T03:00:09.757Z,11.63
2023-07-22T03:02:37.379Z,11.00
2023-07-22T03:05:11.634Z,13.20
2023-07-22T03:07:40.333Z,16.42
2023-07-22T03:10:08.514Z,14.93
2023-07-22T03:12:36.926Z,16.95
2023-07-22T03:15:05.314Z,16.15
2023-07-22T03:17:32.764Z,16.38
2023-07-22T03:19:59.983Z,22.00
2023-07-22T03:22:27.249Z,17.05
2023-07-22T03:24:54.655Z,17.73
2023-07-22T03:27:23.069Z,19.95
2023-07-22T03:29:50.411Z,20.88
2023-07-22T03:32:17.776Z,18.17
2023-07-22T03:34:45.044Z,19.10
2023-07-22T03:37:12.476Z,19.70
2023-07-22T03:39:39.755Z,17.88
2023-07-22T03:42:07.416Z,21.30
2023-07-22T03:44:35.241Z,19.15
2023-07-22T03:47:02.466Z,30.45
2023-07-22T03:49:29.931Z,23.75
2023-07-22T03:51:57.207Z,20.55
2023-07-22T03:54:24.837Z,22.00
2023-07-22T03:56:52.094Z,26.85
2023-07-22T03:59:19.067Z,24.30
2023-07-22T04:01:47.572Z,21.85
2023-07-22T04:04:14.952Z,17.77
2023-07-22T04:06:42.318Z,18.60
2023-07-22T04:09:09.999Z,16.35
2023-07-22T04:11:37.344Z,14.45
2023-07-22T04:14:04.579Z,14.07
2023-07-22T04:16:32.843Z,14.20
2023-07-22T04:19:00.030Z,15.27
2023-07-22T04:21:27.477Z,14.45
2023-07-22T04:23:55.323Z,15.48
2023-07-22T04:26:22.639Z,13.32
2023-07-22T04:28:49.809Z,12.45
2023-07-22T04:31:16.987Z,12.50
2023-07-22T04:33:44.921Z,11.75
2023-07-22T04:36:12.150Z,10.65
2023-07-22T04:38:40.501Z,10.85
2023-07-22T04:41:07.737Z,10.48
2023-07-22T04:43:35.047Z,11.02
2023-07-22T04:46:02.233Z,9.82
2023-07-22T04:48:29.930Z,11.45
2023-07-22T04:50:57.401Z,10.80
2023-07-22T04:53:24.729Z,12.65
2023-07-22T04:55:52.117Z,10.20
2023-07-22T04:58:19.358Z,9.95
2023-07-22T05:00:46.842Z,8.55
2023-07-22T05:03:15.251Z,8.60
2023-07-22T05:05:43.804Z,8.75
2023-07-22T05:08:11.337Z,10.57
2023-07-22T05:10:39.643Z,6.93
2023-07-22T05:13:07.195Z,7.35
2023-07-22T05:15:34.370Z,8.73
2023-07-22T05:18:01.713Z,7.38
2023-07-22T05:20:29.125Z,6.55
2023-07-22T05:22:56.970Z,8.80
2023-07-22T05:25:24.193Z,6.32
2023-07-22T05:27:51.511Z,5.90
2023-07-22T05:30:32.911Z,7.55
2023-07-22T05:33:02.691Z,6.05
2023-07-22T05:35:30.624Z,7.25
2023-07-22T05:37:58.573Z,6.45
2023-07-22T05:40:27.109Z,7.05
2023-07-22T05:42:54.824Z,6.28
2023-07-22T05:45:22.123Z,6.85
2023-07-22T05:47:49.509Z,7.25
2023-07-22T05:50:17.179Z,8.50
2023-07-22T05:52:44.874Z,7.57
2023-07-22T05:55:12.206Z,6.70
2023-07-22T05:57:39.408Z,7.10
2023-07-22T06:00:09.411Z,6.60
2023-07-22T06:02:37.125Z,8.52
2023-07-22T06:05:05.676Z,6.13
2023-07-22T06:07:32.984Z,6.95
2023-07-22T06:10:00.361Z,6.60
2023-07-22T06:12:27.911Z,8.60
2023-07-22T06:14:55.253Z,7.25
2023-07-22T06:17:22.763Z,7.07
2023-07-22T06:19:50.130Z,7.68
2023-07-22T06:22:17.489Z,6.60
2023-07-22T06:24:44.758Z,9.60
2023-07-22T06:27:12.148Z,12.85
2023-07-22T06:29:39.396Z,7.72
2023-07-22T06:32:07.290Z,6.88
2023-07-22T06:34:34.651Z,7.53
2023-07-22T06:37:01.951Z,9.07
2023-07-22T06:39:29.318Z,6.90
2023-07-22T06:41:56.571Z,6.28
2023-07-22T06:44:24.060Z,7.07
2023-07-22T06:46:51.293Z,6.45
2023-07-22T06:49:18.726Z,7.07
2023-07-22T06:51:46.024Z,7.95
2023-07-22T06:54:13.335Z,6.55
2023-07-22T06:56:40.660Z,5.35
2023-07-22T06:59:07.856Z,4.35
2023-07-22T07:01:35.233Z,4.78
2023-07-22T07:04:02.483Z,6.50
2023-07-22T07:06:31.551Z,4.53
2023-07-22T07:09:02.090Z,3.30
2023-07-22T07:11:31.196Z,3.03
2023-07-22T07:13:59.065Z,3.20
2023-07-22T07:16:33.674Z,2.75
2023-07-22T07:19:03.779Z,3.80
2023-07-22T07:21:30.699Z,3.28
2023-07-22T07:23:58.128Z,2.58
2023-07-22T07:26:25.871Z,1.67
2023-07-22T07:28:54.184Z,7.25
2023-07-22T07:31:21.914Z,2.40
2023-07-22T07:33:49.268Z,2.03
2023-07-22T07:36:16.546Z,2.45
2023-07-22T07:38:43.872Z,1.75
2023-07-22T07:41:16.025Z,2.55
2023-07-22T07:43:43.813Z,2.25
2023-07-22T07:46:29.826Z,2.90
2023-07-22T07:48:59.114Z,2.90
2023-07-22T07:51:31.124Z,2.20
2023-07-22T07:54:00.094Z,6.00
2023-07-22T07:56:27.871Z,7.03
2023-07-22T07:58:55.651Z,3.72
2023-07-22T08:01:23.481Z,2.28
2023-07-22T08:03:50.916Z,2.08
2023-07-22T08:06:22.410Z,20.15
2023-07-22T08:08:51.175Z,5.53
2023-07-22T08:11:18.454Z,2.35
2023-07-22T08:13:46.199Z,3.10
2023-07-22T08:16:15.634Z,3.13
2023-07-22T08:18:43.262Z,7.22
2023-07-22T08:21:11.223Z,7.80
2023-07-22T08:23:38.881Z,5.40
2023-07-22T08:26:09.779Z,3.67
2023-07-22T08:28:36.992Z,6.40
2023-07-22T08:31:04.433Z,10.98
2023-07-22T08:36:03.965Z,4.57
2023-07-22T08:38:31.656Z,5.18
2023-07-22T08:40:59.010Z,1.90
2023-07-22T08:43:28.996Z,1.58
2023-07-22T08:45:59.033Z,1.88
2023-07-22T08:48:30.885Z,2.28
2023-07-22T08:51:11.725Z,2.50
2023-07-22T08:53:39.434Z,4.60
2023-07-22T08:56:07.720Z,2.22
2023-07-22T08:58:36.084Z,3.70
2023-07-22T09:01:05.063Z,9.30
2023-07-22T09:03:33.704Z,3.50
2023-07-22T09:06:01.049Z,3.30
2023-07-22T09:08:29.233Z,4.82
2023-07-22T09:10:58.017Z,1.90
2023-07-22T09:13:28.332Z,3.30
2023-07-22T09:15:59.709Z,3.10
2023-07-22T09:18:27.823Z,1.60
2023-07-22T09:20:55.070Z,3.22
2023-07-22T09:23:37.279Z,2.92
2023-07-22T09:26:15.666Z,4.78
2023-07-22T09:28:57.671Z,3.63
2023-07-22T09:31:27.184Z,1.55
2023-07-22T09:33:58.071Z,4.45
2023-07-22T09:36:25.554Z,1.50
2023-07-22T09:39:04.610Z,3.13
2023-07-22T09:41:32.353Z,3.38
2023-07-22T09:44:04.577Z,2.30
2023-07-22T09:46:36.311Z,1.77
2023-07-22T09:49:06.758Z,2.55
2023-07-22T09:51:49.226Z,1.60
2023-07-22T09:54:30.827Z,4.85
2023-07-22T09:56:58.158Z,6.80
2023-07-22T09:59:30.425Z,2.42
2023-07-22T10:02:02.365Z,3.25
2023-07-22T10:04:34.604Z,4.45
2023-07-22T10:07:02.126Z,2.33
2023-07-22T10:09:31.664Z,3.83
2023-07-22T10:11:58.990Z,4.25
2023-07-22T10:14:27.710Z,2.00
2023-07-22T10:16:56.161Z,5.68
2023-07-22T10:19:25.268Z,4.97
2023-07-22T10:21:52.557Z,4.72
2023-07-22T10:24:21.284Z,2.92
2023-07-22T10:26:53.060Z,1.92
2023-07-22T10:29:21.801Z,3.75
2023-07-22T10:31:54.708Z,3.05
2023-07-22T10:34:28.144Z,3.40
2023-07-22T10:36:59.964Z,25.85
2023-07-22T10:39:28.650Z,2.38
2023-07-22T10:42:06.391Z,4.05
2023-07-22T10:44:37.294Z,3.65
2023-07-22T10:47:09.121Z,2.55
2023-07-22T10:49:50.032Z,1.80
2023-07-22T10:52:44.674Z,1.88
2023-07-22T10:55:17.186Z,2.17
2023-07-22T10:57:57.454Z,3.13
2023-07-22T11:00:30.414Z,2.63
2023-07-22T11:03:27.099Z,2.83
2023-07-22T11:05:57.453Z,2.42
2023-07-22T11:08:38.881Z,3.88
2023-07-22T11:11:06.975Z,4.10
2023-07-22T11:13:41.364Z,5.82
2023-07-22T11:16:12.674Z,8.63
2023-07-22T11:18:41.850Z,1.60
2023-07-22T11:21:13.421Z,2.78
2023-07-22T11:23:40.736Z,3.63
2023-07-22T11:26:07.849Z,1.30
2023-07-22T11:28:35.124Z,4.32
2023-07-22T11:31:02.626Z,1.92
2023-07-22T11:33:40.391Z,3.50
2023-07-22T11:36:07.786Z,3.53
2023-07-22T11:38:34.543Z,3.10
2023-07-22T11:41:03.273Z,1.83
2023-07-22T11:43:30.634Z,1.90
2023-07-22T11:45:58.204Z,1.73
2023-07-22T11:48:25.471Z,1.88
2023-07-22T11:50:53.873Z,2.60
2023-07-22T11:53:21.144Z,3.92
2023-07-22T11:55:48.720Z,2.80
2023-07-22T11:58:16.099Z,1.58
2023-07-22T12:01:00.452Z,1.80
2023-07-22T12:03:36.012Z,3.97
2023-07-22T12:06:05.216Z,17.10
2023-07-22T12:08:32.504Z,2.85
2023-07-22T12:11:00.344Z,2.28
2023-07-22T12:13:28.064Z,3.40
2023-07-22T12:16:02.990Z,4.03
2023-07-22T12:18:42.267Z,2.03
2023-07-22T12:21:10.717Z,1.60
2023-07-22T12:23:39.300Z,2.17
2023-07-22T12:26:07.395Z,1.70
2023-07-22T12:28:35.046Z,3.72
2023-07-22T12:31:03.172Z,3.05
2023-07-22T12:33:30.843Z,3.40
2023-07-22T12:35:58.802Z,5.72
2023-07-22T12:38:26.221Z,28.77
2023-07-22T12:40:53.588Z,3.38
2023-07-22T12:43:20.865Z,2.72
2023-07-22T12:45:48.120Z,1.50
2023-07-22T12:48:17.230Z,2.25
2023-07-22T12:50:46.699Z,2.53
2023-07-22T12:53:14.048Z,3.10
2023-07-22T12:55:41.450Z,2.53
2023-07-22T12:58:08.717Z,1.77
2023-07-22T13:00:36.062Z,2.80
2023-07-22T13:03:03.465Z,4.47
2023-07-22T13:05:30.953Z,3.05
2023-07-22T13:07:59.718Z,1.67
2023-07-22T13:10:33.502Z,3.53
2023-07-22T13:13:00.834Z,1.73
2023-07-22T13:15:28.259Z,3.83
2023-07-22T13:17:55.561Z,3.85
2023-07-22T13:20:23.077Z,3.22
2023-07-22T13:22:50.569Z,3.13
2023-07-22T13:25:17.843Z,2.58
2023-07-22T13:27:45.209Z,2.40
2023-07-22T13:30:12.646Z,2.00
2023-07-22T13:32:40.865Z,4.43
2023-07-22T13:35:09.512Z,6.57
2023-07-22T13:37:37.689Z,2.92
2023-07-22T13:40:11.718Z,2.92
2023-07-22T13:42:39.655Z,3.55
2023-07-22T13:45:07.544Z,3.78
2023-07-22T13:47:34.870Z,2.40
2023-07-22T13:50:02.403Z,5.88
2023-07-22T13:52:29.683Z,2.20
2023-07-22T13:54:56.838Z,2.42
2023-07-22T13:57:24.199Z,3.20
2023-07-22T13:59:51.426Z,2.40
2023-07-22T14:02:18.833Z,4.38
2023-07-22T14:04:46.244Z,2.28
2023-07-22T14:07:13.503Z,2.00
2023-07-22T14:09:40.812Z,1.92
2023-07-22T14:12:08.317Z,4.30
2023-07-22T14:14:35.920Z,2.63
2023-07-22T14:17:03.162Z,2.70
2023-07-22T14:19:30.651Z,4.22
2023-07-22T14:21:57.769Z,4.63
2023-07-22T14:24:25.137Z,9.02
2023-07-22T14:26:52.378Z,3.97
2023-07-22T14:29:19.715Z,3.42
2023-07-22T14:31:46.981Z,4.82
2023-07-22T14:34:14.343Z,3.42
2023-07-22T14:36:42.472Z,3.28
2023-07-22T14:39:11.301Z,3.10
2023-07-22T14:41:38.541Z,4.60
2023-07-22T14:44:06.375Z,5.95
2023-07-22T14:46:33.763Z,1.88
2023-07-22T14:49:01.082Z,5.32
2023-07-22T14:51:28.495Z,2.22
2023-07-22T14:53:55.996Z,2.17
2023-07-22T14:56:23.386Z,2.40
2023-07-22T14:58:51.003Z,3.40
2023-07-22T15:01:18.424Z,1.90
2023-07-22T15:03:45.886Z,4.43
2023-07-22T15:06:13.149Z,2.22
2023-07-22T15:08:40.448Z,1.98
2023-07-22T15:11:09.267Z,2.25
2023-07-22T15:13:36.452Z,2.35
2023-07-22T15:16:04.452Z,2.75
2023-07-22T15:18:31.757Z,1.70
2023-07-22T15:20:58.888Z,2.25
2023-07-22T15:23:26.244Z,3.53
2023-07-22T15:25:53.560Z,19.25
2023-07-22T15:28:20.789Z,56.60
2023-07-22T15:30:48.578Z,7.15
2023-07-22T15:33:15.787Z,3.38
2023-07-22T15:35:42.999Z,3.50
2023-07-22T15:38:10.208Z,2.15
2023-07-22T15:40:38.667Z,2.10
2023-07-22T15:43:06.140Z,3.60
2023-07-22T15:45:33.566Z,2.05
2023-07-22T15:48:01.484Z,3.40
2023-07-22T15:50:28.877Z,3.25
2023-07-22T15:52:56.365Z,3.08
2023-07-22T15:55:23.556Z,2.45
2023-07-22T15:57:50.965Z,3.10
2023-07-22T16:00:18.444Z,8.48
2023-07-22T16:02:45.896Z,10.07
2023-07-22T16:05:22.528Z,4.70
2023-07-22T16:07:50.516Z,2.92
2023-07-22T16:10:18.026Z,2.47
2023-07-22T16:12:45.366Z,2.45
2023-07-22T16:15:12.708Z,3.90
2023-07-22T16:17:39.963Z,2.38
2023-07-22T16:20:07.998Z,7.50
2023-07-22T16:22:36.583Z,4.70
2023-07-22T16:25:05.238Z,4.43
2023-07-22T16:27:32.456Z,1.70
2023-07-22T16:29:59.813Z,2.70
2023-07-22T16:32:27.020Z,4.72
2023-07-22T16:34:54.569Z,2.17
2023-07-22T16:37:22.098Z,5.45
2023-07-22T16:39:49.581Z,2.00
2023-07-22T16:42:16.802Z,18.42
2023-07-22T16:44:44.073Z,4.00
2023-07-22T16:47:11.271Z,2.28
2023-07-22T16:49:38.577Z,5.05
2023-07-22T16:52:06.238Z,2.00
2023-07-22T16:54:34.071Z,1.67
2023-07-22T16:57:01.223Z,3.50
2023-07-22T16:59:28.628Z,2.25
2023-07-22T17:01:55.963Z,3.72
2023-07-22T17:04:23.848Z,2.15
2023-07-22T17:06:51.077Z,4.65
2023-07-22T17:09:19.097Z,2.13
2023-07-22T17:11:46.517Z,3.75
2023-07-22T17:14:13.894Z,3.65
2023-07-22T17:16:40.707Z,3.42
2023-07-22T17:19:07.980Z,2.63
2023-07-22T17:21:35.400Z,5.07
2023-07-22T17:24:02.740Z,1.98
2023-07-22T17:26:30.013Z,7.05
2023-07-22T17:28:57.776Z,5.95
2023-07-22T17:31:25.353Z,7.45
2023-07-22T17:33:53.016Z,4.68
2023-07-22T17:36:20.265Z,4.13
2023-07-22T17:38:47.628Z,4.72
2023-07-22T17:41:15.019Z,3.70
2023-07-22T17:43:42.426Z,5.97
2023-07-22T17:46:10.386Z,2.78
2023-07-22T17:48:37.712Z,2.40
2023-07-22T17:51:05.194Z,2.55
2023-07-22T17:53:32.476Z,2.80
2023-07-22T17:56:00.107Z,2.90
2023-07-22T17:58:28.039Z,2.72
2023-07-22T18:00:55.411Z,3.58
2023-07-22T18:03:22.659Z,4.13
2023-07-22T18:05:50.206Z,3.45
2023-07-22T18:08:17.721Z,3.53
2023-07-22T18:10:45.278Z,3.00
2023-07-22T18:13:12.668Z,5.45
2023-07-22T18:15:39.827Z,4.80
2023-07-22T18:18:08.570Z,3.42
2023-07-22T18:20:36.458Z,7.03
2023-07-22T18:23:03.718Z,3.10
2023-07-22T18:25:30.545Z,3.95
2023-07-22T18:27:57.739Z,3.65
2023-07-22T18:30:24.989Z,3.70
2023-07-22T18:32:52.308Z,6.00
2023-07-22T18:35:19.608Z,13.98
2023-07-22T18:37:46.777Z,8.18
2023-07-22T18:40:14.511Z,5.28
2023-07-22T18:42:42.548Z,5.57
2023-07-22T18:45:10.740Z,24.55
2023-07-22T18:47:38.201Z,21.02
2023-07-22T18:50:06.576Z,24.75
2023-07-22T18:52:34.218Z,20.10
2023-07-22T18:55:01.545Z,31.75
2023-07-22T18:57:28.947Z,32.67
2023-07-22T18:59:56.281Z,29.15
2023-07-22T19:02:23.545Z,30.38
2023-07-22T19:04:50.890Z,30.83
2023-07-22T19:07:18.414Z,29.67
2023-07-22T19:09:45.795Z,33.08
2023-07-22T19:12:13.127Z,33.15
2023-07-22T19:14:40.384Z,31.95
2023-07-22T19:17:07.983Z,45.10
2023-07-22T19:19:35.519Z,68.63
2023-07-22T19:22:02.792Z,75.53
2023-07-22T19:24:30.361Z,91.80
2023-07-22T19:26:57.726Z,83.43
2023-07-22T19:29:25.027Z,64.30
2023-07-22T19:31:52.582Z,42.00
2023-07-22T19:34:19.911Z,34.40
2023-07-22T19:36:47.447Z,31.60
2023-07-22T19:39:17.868Z,40.28
2023-07-22T19:41:44.924Z,63.28
2023-07-22T19:44:12.572Z,54.40
2023-07-22T19:46:39.423Z,44.42
2023-07-22T19:49:06.965Z,45.05
2023-07-22T19:51:34.393Z,49.03
2023-07-22T19:54:01.380Z,66.72
2023-07-22T19:56:28.358Z,49.60
2023-07-22T19:58:55.694Z,40.33
2023-07-22T20:01:23.362Z,54.28
2023-07-22T20:03:53.476Z,50.35
2023-07-22T20:06:20.528Z,17.70
2023-07-22T20:08:50.236Z,12.38
2023-07-22T20:11:17.107Z,14.60
2023-07-22T20:13:44.955Z,12.48
2023-07-22T20:16:12.456Z,12.65
2023-07-22T20:18:39.465Z,11.35
2023-07-22T20:21:06.922Z,11.60
2023-07-22T20:23:33.843Z,13.48
2023-07-22T20:26:01.116Z,12.90
2023-07-22T20:28:30.405Z,26.92
2023-07-22T20:30:58.483Z,16.20
2023-07-22T20:33:27.080Z,10.98
2023-07-22T20:35:55.965Z,10.82
2023-07-22T20:38:23.060Z,9.57
2023-07-22T20:40:49.790Z,25.27
2023-07-22T20:43:17.155Z,32.35
2023-07-22T20:45:44.006Z,19.92
2023-07-22T20:48:11.433Z,13.10
2023-07-22T20:50:38.869Z,9.23
2023-07-22T20:53:06.408Z,14.40
2023-07-22T20:55:33.670Z,13.23
2023-07-22T20:58:01.295Z,18.60
2023-07-22T21:00:28.609Z,25.10
2023-07-22T21:02:55.563Z,30.00
2023-07-22T21:05:23.225Z,14.35
2023-07-22T21:07:52.290Z,10.77
2023-07-22T21:10:22.850Z,9.70
2023-07-22T21:12:49.672Z,11.77
2023-07-22T21:15:16.550Z,17.13
2023-07-22T21:17:44.500Z,10.32
2023-07-22T21:20:12.465Z,8.57
2023-07-22T21:22:39.799Z,43.10
2023-07-22T21:25:07.262Z,48.58
2023-07-22T21:27:42.900Z,37.35
2023-07-22T21:30:15.197Z,12.63
2023-07-22T21:32:42.774Z,10.27
2023-07-22T21:35:10.338Z,6.82
2023-07-22T21:37:37.123Z,9.10
2023-07-22T21:40:06.285Z,9.23
2023-07-22T21:42:33.857Z,7.55
2023-07-22T21:45:02.936Z,6.78
2023-07-22T21:47:30.240Z,7.68
2023-07-22T21:49:57.932Z,8.57
2023-07-22T21:52:25.286Z,8.43
2023-07-22T21:54:52.936Z,6.80
2023-07-22T21:57:20.433Z,8.52
2023-07-22T21:59:47.766Z,39.10
2023-07-22T22:02:15.288Z,50.55
2023-07-22T22:04:42.789Z,18.20
2023-07-22T22:07:09.606Z,35.90
2023-07-22T22:09:36.859Z,30.45
2023-07-22T22:12:04.510Z,35.97
2023-07-22T22:14:31.955Z,26.17
2023-07-22T22:16:59.310Z,15.68
2023-07-22T22:19:26.975Z,25.95
2023-07-22T22:21:54.448Z,32.80
2023-07-22T22:24:21.803Z,42.00
2023-07-22T22:26:49.060Z,16.23
2023-07-22T22:29:16.473Z,8.77
2023-07-22T22:31:43.659Z,8.43
2023-07-22T22:34:10.976Z,27.52
2023-07-22T22:36:38.483Z,26.17
2023-07-22T22:39:05.809Z,29.73
2023-07-22T22:41:33.089Z,10.45
2023-07-22T22:44:00.460Z,9.35
2023-07-22T22:46:27.825Z,7.18
2023-07-22T22:48:55.252Z,9.45
2023-07-22T22:51:22.725Z,6.60
2023-07-22T22:53:49.920Z,10.55
2023-07-22T22:56:17.248Z,7.90
2023-07-22T22:58:44.582Z,10.15
2023-07-22T23:01:16.322Z,9.07
2023-07-22T23:03:43.741Z,28.10
2023-07-22T23:06:19.724Z,36.67
2023-07-22T23:08:50.878Z,31.27
2023-07-22T23:11:21.143Z,13.70
2023-07-22T23:13:49.919Z,32.85
2023-07-22T23:16:18.014Z,21.10
2023-07-22T23:18:47.061Z,16.67
2023-07-22T23:21:15.993Z,8.55
2023-07-22T23:23:48.250Z,8.23
2023-07-22T23:26:16.554Z,7.05
2023-07-22T23:28:44.541Z,7.03
2023-07-22T23:31:12.467Z,17.67
2023-07-22T23:33:40.126Z,28.05
2023-07-22T23:36:08.948Z,21.88
2023-07-22T23:38:36.572Z,20.35
2023-07-22T23:41:04.381Z,23.10
2023-07-22T23:43:31.932Z,17.50
2023-07-22T23:45:59.292Z,17.02
2023-07-22T23:48:27.440Z,19.38
2023-07-22T23:50:56.003Z,17.75
2023-07-22T23:53:23.724Z,18.90
2023-07-22T23:55:51.622Z,17.88
2023-07-22T23:58:18.841Z,22.83
